createdAt,value
2022-12-18T00:01:34.165Z,49.22
2022-12-18T00:04:04.496Z,39.97
2022-12-18T00:06:33.727Z,45.53
2022-12-18T00:09:02.107Z,39.72
2022-12-18T00:11:31.240Z,42.40
2022-12-18T00:13:59.927Z,43.83
2022-12-18T00:16:29.014Z,46.87
2022-12-18T00:19:00.528Z,44.70
2022-12-18T00:21:29.231Z,38.63
2022-12-18T00:23:57.487Z,42.40
2022-12-18T00:26:31.203Z,41.17
2022-12-18T00:29:01.800Z,43.53
2022-12-18T00:31:31.730Z,39.80
2022-12-18T00:34:00.167Z,40.78
2022-12-18T00:36:30.246Z,40.40
2022-12-18T00:38:59.268Z,43.20
2022-12-18T00:41:45.977Z,45.93
2022-12-18T00:44:16.214Z,38.08
2022-12-18T00:46:44.754Z,42.85
2022-12-18T00:49:12.929Z,44.25
2022-12-18T00:51:40.547Z,51.63
2022-12-18T00:54:08.518Z,50.13
2022-12-18T00:56:45.737Z,57.62
2022-12-18T00:59:18.108Z,53.33
2022-12-18T01:01:45.945Z,56.55
2022-12-18T01:04:14.103Z,41.13
2022-12-18T01:06:42.038Z,45.33
2022-12-18T01:09:09.570Z,39.80
2022-12-18T01:11:37.701Z,38.60
2022-12-18T01:14:05.804Z,39.33
2022-12-18T01:16:33.407Z,41.53
2022-12-18T01:19:01.038Z,43.93
2022-12-18T01:21:29.016Z,39.25
2022-12-18T01:23:57.400Z,39.75
2022-12-18T01:26:25.985Z,41.65
2022-12-18T01:28:55.834Z,42.75
2022-12-18T01:31:26.885Z,43.77
2022-12-18T01:33:56.228Z,39.35
2022-12-18T01:36:29.764Z,42.30
2022-12-18T01:39:00.097Z,45.58
2022-12-18T01:41:53.251Z,41.60
2022-12-18T01:44:55.667Z,34.53
2022-12-18T01:47:30.267Z,37.55
2022-12-18T01:50:00.699Z,41.83
2022-12-18T01:52:30.364Z,38.05
2022-12-18T01:54:58.298Z,38.08
2022-12-18T01:57:28.308Z,43.33
2022-12-18T01:59:58.938Z,39.25
2022-12-18T02:02:30.269Z,42.95
2022-12-18T02:04:59.708Z,40.83
2022-12-18T02:07:36.293Z,41.20
2022-12-18T02:10:30.408Z,38.53
2022-12-18T02:13:12.986Z,42.08
2022-12-18T02:15:46.432Z,44.50
2022-12-18T02:18:22.685Z,38.88
2022-12-18T02:20:55.551Z,44.85
2022-12-18T02:23:47.347Z,44.70
2022-12-18T02:26:21.054Z,35.58
2022-12-18T02:28:56.483Z,42.35
2022-12-18T02:31:31.155Z,47.50
2022-12-18T02:34:01.605Z,42.80
2022-12-18T02:36:29.628Z,47.87
2022-12-18T02:38:58.120Z,45.17
2022-12-18T02:41:26.566Z,39.70
2022-12-18T02:44:00.665Z,39.20
2022-12-18T02:46:41.736Z,41.45
2022-12-18T02:49:27.134Z,43.53
2022-12-18T02:52:19.982Z,43.90
2022-12-18T02:54:51.372Z,41.53
2022-12-18T02:57:26.470Z,46.90
2022-12-18T03:00:01.647Z,40.45
2022-12-18T03:02:40.899Z,43.13
2022-12-18T03:05:23.230Z,36.00
2022-12-18T03:07:57.955Z,38.72
2022-12-18T03:10:31.207Z,40.12
2022-12-18T03:13:27.485Z,40.78
2022-12-18T03:15:56.675Z,43.10
2022-12-18T03:18:43.914Z,41.97
2022-12-18T03:21:12.300Z,39.88
2022-12-18T03:23:48.087Z,38.65
2022-12-18T03:26:20.326Z,42.53
2022-12-18T03:28:53.604Z,48.97
2022-12-18T03:31:23.601Z,43.30
2022-12-18T03:33:57.289Z,56.33
2022-12-18T03:36:26.061Z,45.50
2022-12-18T03:38:54.080Z,40.15
2022-12-18T03:41:31.629Z,44.83
2022-12-18T03:44:14.879Z,47.70
2022-12-18T03:46:58.170Z,40.70
2022-12-18T03:49:31.607Z,36.03
2022-12-18T03:52:12.621Z,37.05
2022-12-18T03:54:42.748Z,43.27
2022-12-18T03:57:15.368Z,44.53
2022-12-18T03:59:44.407Z,44.40
2022-12-18T04:02:16.004Z,49.80
2022-12-18T04:04:44.399Z,44.60
2022-12-18T04:07:13.161Z,40.20
2022-12-18T04:09:41.918Z,40.80
2022-12-18T04:12:10.103Z,45.80
2022-12-18T04:14:37.914Z,42.95
2022-12-18T04:17:06.111Z,50.35
2022-12-18T04:19:34.006Z,38.00
2022-12-18T04:22:02.257Z,46.97
2022-12-18T04:24:31.757Z,43.25
2022-12-18T04:27:02.440Z,49.83
2022-12-18T04:29:31.385Z,41.42
2022-12-18T04:31:58.910Z,46.13
2022-12-18T04:34:27.140Z,45.10
2022-12-18T04:36:54.757Z,39.10
2022-12-18T04:39:22.666Z,49.15
2022-12-18T04:41:50.846Z,44.15
2022-12-18T04:44:18.743Z,40.67
2022-12-18T04:46:46.238Z,42.88
2022-12-18T04:49:14.123Z,47.83
2022-12-18T04:51:41.765Z,43.28
2022-12-18T04:54:09.231Z,46.28
2022-12-18T04:56:36.996Z,47.70
2022-12-18T04:59:04.485Z,47.47
2022-12-18T05:01:34.805Z,46.03
2022-12-18T05:04:04.755Z,46.47
2022-12-18T05:06:32.379Z,43.70
2022-12-18T05:08:59.917Z,46.53
2022-12-18T05:11:27.680Z,49.70
2022-12-18T05:13:56.591Z,44.17
2022-12-18T05:16:24.244Z,45.00
2022-12-18T05:18:52.017Z,51.20
2022-12-18T05:21:20.356Z,45.63
2022-12-18T05:23:47.919Z,48.45
2022-12-18T05:26:18.380Z,49.28
2022-12-18T05:28:46.931Z,47.67
2022-12-18T05:31:14.942Z,48.38
2022-12-18T05:33:43.125Z,50.47
2022-12-18T05:36:11.035Z,50.00
2022-12-18T05:38:39.364Z,47.60
2022-12-18T05:41:08.169Z,56.65
2022-12-18T05:43:37.630Z,50.33
2022-12-18T05:46:07.627Z,49.87
2022-12-18T05:48:35.599Z,53.97
2022-12-18T05:51:15.558Z,51.13
2022-12-18T05:53:44.118Z,48.25
2022-12-18T05:56:15.710Z,47.95
2022-12-18T05:58:43.930Z,53.87
2022-12-18T06:01:16.041Z,49.83
2022-12-18T06:03:44.213Z,54.30
2022-12-18T06:06:19.906Z,55.35
2022-12-18T06:08:47.768Z,51.92
2022-12-18T06:11:18.509Z,51.60
2022-12-18T06:13:46.440Z,53.78
2022-12-18T06:16:14.223Z,52.38
2022-12-18T06:18:41.822Z,51.28
2022-12-18T06:21:09.515Z,63.35
2022-12-18T06:23:37.620Z,54.50
2022-12-18T06:26:10.693Z,58.47
2022-12-18T06:28:38.715Z,58.35
2022-12-18T06:31:07.205Z,53.25
2022-12-18T06:33:35.576Z,58.25
2022-12-18T06:36:08.413Z,60.57
2022-12-18T06:38:37.676Z,54.72
2022-12-18T06:41:17.115Z,59.88
2022-12-18T06:43:45.118Z,62.13
2022-12-18T06:46:13.586Z,58.40
2022-12-18T06:48:41.308Z,62.97
2022-12-18T06:51:08.840Z,56.22
2022-12-18T06:53:36.703Z,56.83
2022-12-18T06:56:10.171Z,57.45
2022-12-18T06:58:39.990Z,52.60
2022-12-18T07:01:11.398Z,54.33
2022-12-18T07:03:43.584Z,56.75
2022-12-18T07:06:16.950Z,62.92
2022-12-18T07:08:45.357Z,65.60
2022-12-18T07:11:13.566Z,58.80
2022-12-18T07:13:41.520Z,59.27
2022-12-18T07:16:22.596Z,53.17
2022-12-18T07:18:53.000Z,58.15
2022-12-18T07:21:22.075Z,52.80
2022-12-18T07:23:49.759Z,55.50
2022-12-18T07:26:19.796Z,50.03
2022-12-18T07:28:47.872Z,54.60
2022-12-18T07:31:18.212Z,53.17
2022-12-18T07:33:46.684Z,55.33
2022-12-18T07:36:14.980Z,58.47
2022-12-18T07:38:42.592Z,65.67
2022-12-18T07:41:12.701Z,60.85
2022-12-18T07:43:42.045Z,62.78
2022-12-18T07:46:10.734Z,59.60
2022-12-18T07:48:49.523Z,66.40
2022-12-18T07:51:19.069Z,69.27
2022-12-18T07:53:49.328Z,57.62
2022-12-18T07:56:29.384Z,66.28
2022-12-18T07:58:59.606Z,59.85
2022-12-18T08:01:27.407Z,59.50
2022-12-18T08:03:55.554Z,55.97
2022-12-18T08:06:24.240Z,55.92
2022-12-18T08:08:56.542Z,61.20
2022-12-18T08:11:26.585Z,55.63
2022-12-18T08:13:54.362Z,65.17
2022-12-18T08:16:22.910Z,52.38
2022-12-18T08:18:52.251Z,61.63
2022-12-18T08:21:24.034Z,60.20
2022-12-18T08:23:55.276Z,64.25
2022-12-18T08:26:23.431Z,58.40
2022-12-18T08:28:51.860Z,57.62
2022-12-18T08:31:20.038Z,55.03
2022-12-18T08:33:53.269Z,61.25
2022-12-18T08:36:22.197Z,59.05
2022-12-18T08:38:49.857Z,58.93
2022-12-18T08:41:19.066Z,56.97
2022-12-18T08:44:05.724Z,62.62
2022-12-18T08:46:38.050Z,51.37
2022-12-18T08:49:06.658Z,56.53
2022-12-18T08:51:35.078Z,60.80
2022-12-18T08:54:04.477Z,56.28
2022-12-18T08:56:35.193Z,56.58
2022-12-18T08:59:03.788Z,59.88
2022-12-18T09:01:31.550Z,58.35
2022-12-18T09:03:59.951Z,56.30
2022-12-18T09:06:27.719Z,50.85
2022-12-18T09:08:55.291Z,63.78
2022-12-18T09:11:25.607Z,60.83
2022-12-18T09:13:53.921Z,57.35
2022-12-18T09:16:25.988Z,56.60
2022-12-18T09:19:00.590Z,70.60
2022-12-18T09:21:32.306Z,60.55
2022-12-18T09:24:02.669Z,59.72
2022-12-18T09:26:30.240Z,58.42
2022-12-18T09:28:58.031Z,58.63
2022-12-18T09:31:25.929Z,58.38
2022-12-18T09:33:53.457Z,53.17
2022-12-18T09:36:21.032Z,58.67
2022-12-18T09:38:49.743Z,50.47
2022-12-18T09:41:48.988Z,46.60
2022-12-18T09:44:18.968Z,49.50
2022-12-18T09:47:34.748Z,49.00
2022-12-18T09:50:06.131Z,48.17
2022-12-18T09:52:45.611Z,51.17
2022-12-18T09:55:16.385Z,48.17
2022-12-18T09:57:49.192Z,53.00
2022-12-18T10:00:20.699Z,48.00
2022-12-18T10:02:49.238Z,45.17
2022-12-18T10:05:21.555Z,46.05
2022-12-18T10:08:14.226Z,45.40
2022-12-18T10:10:54.229Z,44.83
2022-12-18T10:13:31.156Z,61.60
2022-12-18T10:16:13.965Z,50.55
2022-12-18T10:19:33.213Z,45.88
2022-12-18T10:22:18.971Z,36.40
2022-12-18T10:25:27.408Z,46.10
2022-12-18T10:27:59.116Z,40.83
2022-12-18T10:30:28.087Z,39.38
2022-12-18T10:32:57.173Z,44.47
2022-12-18T10:35:27.819Z,39.53
2022-12-18T10:38:03.023Z,40.85
2022-12-18T10:40:31.135Z,50.72
2022-12-18T10:43:15.669Z,40.03
2022-12-18T10:45:43.652Z,36.20
2022-12-18T10:48:23.745Z,51.43
2022-12-18T10:53:44.020Z,50.70
2022-12-18T10:56:12.082Z,43.83
2022-12-18T10:58:41.083Z,49.70
2022-12-18T11:01:13.314Z,42.40
2022-12-18T11:03:42.384Z,55.03
2022-12-18T11:06:15.206Z,63.03
2022-12-18T11:08:45.096Z,50.90
2022-12-18T11:11:23.489Z,49.22
2022-12-18T11:13:59.345Z,57.33
2022-12-18T11:16:28.222Z,48.03
2022-12-18T11:19:29.963Z,43.17
2022-12-18T11:21:57.823Z,42.47
2022-12-18T11:24:30.516Z,41.83
2022-12-18T11:27:00.123Z,43.80
2022-12-18T11:29:32.656Z,36.97
2022-12-18T11:32:15.665Z,33.08
2022-12-18T11:34:47.123Z,38.60
2022-12-18T11:37:16.362Z,35.88
2022-12-18T11:39:50.427Z,41.43
2022-12-18T11:42:22.717Z,37.45
2022-12-18T11:45:27.153Z,48.15
2022-12-18T11:48:07.087Z,39.85
2022-12-18T11:50:56.797Z,37.67
2022-12-18T11:53:26.525Z,38.00
2022-12-18T11:56:03.474Z,37.65
2022-12-18T11:58:45.105Z,41.17
2022-12-18T12:01:44.843Z,37.25
2022-12-18T12:04:41.384Z,37.25
2022-12-18T12:07:42.190Z,35.93
2022-12-18T12:10:49.055Z,41.67
2022-12-18T12:13:36.174Z,36.28
2022-12-18T12:16:16.163Z,32.42
2022-12-18T12:19:03.311Z,45.85
2022-12-18T12:21:41.312Z,38.40
2022-12-18T12:24:21.817Z,42.80
2022-12-18T12:27:29.431Z,45.47
2022-12-18T12:30:21.474Z,41.25
2022-12-18T12:33:15.305Z,36.47
2022-12-18T12:36:10.101Z,42.37
2022-12-18T12:38:49.760Z,38.22
2022-12-18T12:41:41.343Z,34.50
2022-12-18T12:44:13.816Z,60.08
2022-12-18T12:46:43.067Z,38.60
2022-12-18T12:49:15.113Z,36.30
2022-12-18T12:51:53.886Z,48.20
2022-12-18T12:54:24.853Z,54.85
2022-12-18T12:57:09.991Z,38.80
2022-12-18T12:59:43.479Z,36.15
2022-12-18T13:02:17.061Z,31.97
2022-12-18T13:04:51.588Z,33.03
2022-12-18T13:07:37.093Z,34.75
2022-12-18T13:10:43.567Z,30.83
2022-12-18T13:13:13.533Z,35.05
2022-12-18T13:15:47.677Z,40.90
2022-12-18T13:18:26.305Z,35.47
2022-12-18T13:21:03.245Z,27.60
2022-12-18T13:23:37.951Z,34.80
2022-12-18T13:26:11.525Z,30.48
2022-12-18T13:28:48.370Z,30.50
2022-12-18T13:31:42.538Z,34.15
2022-12-18T13:34:28.288Z,33.20
2022-12-18T13:37:00.537Z,30.23
2022-12-18T13:39:36.110Z,30.95
2022-12-18T13:42:07.423Z,30.93
2022-12-18T13:44:40.637Z,36.42
2022-12-18T13:47:32.900Z,37.30
2022-12-18T13:50:01.616Z,36.25
2022-12-18T13:52:36.087Z,40.20
2022-12-18T13:55:06.821Z,44.00
2022-12-18T13:57:39.324Z,81.47
2022-12-18T14:00:25.762Z,41.10
2022-12-18T14:02:54.081Z,32.70
2022-12-18T14:05:33.447Z,59.13
2022-12-18T14:08:13.999Z,38.83
2022-12-18T14:10:48.370Z,42.28
2022-12-18T14:13:25.625Z,54.90
2022-12-18T14:15:53.727Z,52.62
2022-12-18T14:18:35.152Z,51.80
2022-12-18T14:21:07.015Z,36.83
2022-12-18T14:23:42.092Z,38.70
2022-12-18T14:26:23.801Z,32.90
2022-12-18T14:28:52.016Z,36.20
2022-12-18T14:31:25.418Z,51.15
2022-12-18T14:33:54.323Z,70.93
2022-12-18T14:36:27.200Z,49.83
2022-12-18T14:38:57.187Z,75.68
2022-12-18T14:41:25.321Z,53.53
2022-12-18T14:43:54.991Z,80.12
2022-12-18T14:46:38.916Z,80.33
2022-12-18T14:49:28.514Z,63.17
2022-12-18T14:52:29.113Z,45.90
2022-12-18T14:54:56.601Z,72.30
2022-12-18T14:57:36.230Z,100.28
2022-12-18T15:00:12.363Z,194.17
2022-12-18T15:02:40.363Z,134.87
2022-12-18T15:05:13.943Z,93.55
2022-12-18T15:07:50.652Z,79.40
2022-12-18T15:10:21.083Z,118.68
2022-12-18T15:12:51.267Z,89.30
2022-12-18T15:15:34.666Z,63.08
2022-12-18T15:18:08.840Z,93.82
2022-12-18T15:20:45.604Z,79.00
2022-12-18T15:23:23.833Z,106.30
2022-12-18T15:26:01.530Z,111.57
2022-12-18T15:28:38.053Z,98.18
2022-12-18T15:31:09.855Z,84.50
2022-12-18T15:33:45.181Z,74.20
2022-12-18T15:36:15.409Z,89.62
2022-12-18T15:38:48.305Z,70.20
2022-12-18T15:41:22.936Z,72.12
2022-12-18T15:43:53.482Z,58.33
2022-12-18T15:46:25.154Z,67.62
2022-12-18T15:49:01.760Z,56.50
2022-12-18T15:51:33.860Z,51.33
2022-12-18T15:54:06.325Z,58.53
2022-12-18T15:56:53.150Z,64.03
2022-12-18T15:59:21.833Z,76.37
2022-12-18T16:01:51.418Z,75.87
2022-12-18T16:04:21.695Z,86.27
2022-12-18T16:09:38.068Z,74.47
2022-12-18T16:12:07.723Z,75.75
2022-12-18T16:14:35.356Z,66.75
2022-12-18T16:17:06.896Z,61.00
2022-12-18T16:19:34.616Z,68.07
2022-12-18T16:22:03.714Z,69.30
2022-12-18T16:24:33.629Z,66.22
2022-12-18T16:27:01.294Z,61.92
2022-12-18T16:29:29.945Z,61.57
2022-12-18T16:31:59.451Z,59.75
2022-12-18T16:34:35.678Z,64.20
2022-12-18T16:37:06.881Z,60.75
2022-12-18T16:39:35.655Z,58.55
2022-12-18T16:42:11.044Z,65.63
2022-12-18T16:44:39.270Z,62.55
2022-12-18T16:47:07.030Z,68.93
2022-12-18T16:49:38.236Z,69.12
2022-12-18T16:52:07.040Z,71.87
2022-12-18T16:54:36.730Z,64.87
2022-12-18T16:57:05.533Z,56.53
2022-12-18T16:59:34.752Z,60.35
2022-12-18T17:02:02.523Z,81.12
2022-12-18T17:04:30.183Z,86.68
2022-12-18T17:06:59.314Z,81.10
2022-12-18T17:09:27.059Z,71.50
2022-12-18T17:11:55.349Z,83.32
2022-12-18T17:14:24.753Z,83.47
2022-12-18T17:17:19.874Z,76.12
2022-12-18T17:19:41.764Z,77.40
2022-12-18T17:22:09.580Z,84.87
2022-12-18T17:24:37.549Z,87.93
2022-12-18T17:27:05.640Z,87.22
2022-12-18T17:29:33.575Z,100.93
2022-12-18T17:32:01.344Z,113.17
2022-12-18T17:34:30.028Z,104.20
2022-12-18T17:36:58.567Z,97.47
2022-12-18T17:39:26.224Z,88.80
2022-12-18T17:41:54.446Z,74.05
2022-12-18T17:44:22.396Z,73.70
2022-12-18T17:46:50.230Z,68.47
2022-12-18T17:49:18.468Z,65.03
2022-12-18T17:51:46.345Z,61.50
2022-12-18T17:54:14.187Z,63.83
2022-12-18T17:56:42.317Z,61.40
2022-12-18T17:59:10.640Z,60.15
2022-12-18T18:01:44.417Z,68.07
2022-12-18T18:04:13.918Z,66.47
2022-12-18T18:06:42.050Z,74.32
2022-12-18T18:09:15.618Z,70.07
2022-12-18T18:12:04.260Z,73.57
2022-12-18T18:14:32.392Z,64.45
2022-12-18T18:17:04.442Z,60.22
2022-12-18T18:19:33.616Z,58.28
2022-12-18T18:22:02.922Z,60.20
2022-12-18T18:24:31.179Z,57.30
2022-12-18T18:27:00.135Z,62.17
2022-12-18T18:29:32.558Z,65.47
2022-12-18T18:32:00.412Z,57.58
2022-12-18T18:34:30.436Z,69.20
2022-12-18T18:36:58.197Z,67.28
2022-12-18T18:39:25.945Z,71.28
2022-12-18T18:41:54.003Z,69.05
2022-12-18T18:44:25.628Z,69.95
2022-12-18T18:46:57.818Z,85.87
2022-12-18T18:49:27.546Z,72.20
2022-12-18T18:51:57.143Z,78.45
2022-12-18T18:54:25.725Z,102.12
2022-12-18T18:57:19.580Z,97.12
2022-12-18T18:59:42.237Z,101.27
2022-12-18T19:02:13.316Z,96.70
2022-12-18T19:04:46.153Z,97.97
2022-12-18T19:07:25.394Z,92.70
2022-12-18T19:10:04.264Z,97.32
2022-12-18T19:12:53.311Z,87.60
2022-12-18T19:15:23.017Z,89.80
2022-12-18T19:17:50.838Z,81.37
2022-12-18T19:20:19.500Z,87.30
2022-12-18T19:22:54.356Z,84.50
2022-12-18T19:25:38.061Z,83.43
2022-12-18T19:28:19.962Z,84.05
2022-12-18T19:30:50.770Z,84.20
2022-12-18T19:36:12.910Z,82.45
2022-12-18T19:38:44.117Z,80.33
2022-12-18T19:41:14.823Z,81.65
2022-12-18T19:43:43.861Z,79.07
2022-12-18T19:46:14.587Z,88.10
2022-12-18T19:48:44.337Z,79.37
2022-12-18T19:51:24.527Z,79.00
2022-12-18T19:53:58.087Z,75.87
2022-12-18T19:56:29.566Z,81.10
2022-12-18T19:58:57.746Z,84.57
2022-12-18T20:01:26.172Z,78.35
2022-12-18T20:03:55.894Z,80.10
2022-12-18T20:06:32.789Z,84.87
2022-12-18T20:09:03.896Z,73.35
2022-12-18T20:11:32.987Z,86.57
2022-12-18T20:14:01.155Z,79.45
2022-12-18T20:16:29.036Z,78.43
2022-12-18T20:18:56.968Z,69.40
2022-12-18T20:21:25.574Z,76.75
2022-12-18T20:23:54.849Z,73.90
2022-12-18T20:26:24.024Z,80.50
2022-12-18T20:28:52.592Z,78.53
2022-12-18T20:31:20.526Z,92.35
2022-12-18T20:33:49.984Z,83.62
2022-12-18T20:36:23.545Z,82.75
2022-12-18T20:38:57.152Z,87.30
2022-12-18T20:41:37.342Z,91.53
2022-12-18T20:44:21.854Z,89.03
2022-12-18T20:46:55.171Z,93.95
2022-12-18T20:49:24.768Z,94.45
2022-12-18T20:51:54.673Z,95.68
2022-12-18T20:54:25.021Z,118.80
2022-12-18T20:56:53.752Z,107.65
2022-12-18T20:59:23.195Z,95.32
2022-12-18T21:01:52.420Z,103.75
2022-12-18T21:04:21.448Z,101.28
2022-12-18T21:06:53.392Z,103.73
2022-12-18T21:09:23.880Z,110.57
2022-12-18T21:12:13.924Z,110.47
2022-12-18T21:14:42.938Z,95.43
2022-12-18T21:17:11.174Z,101.68
2022-12-18T21:19:39.084Z,106.70
2022-12-18T21:22:08.198Z,97.03
2022-12-18T21:24:35.903Z,98.15
2022-12-18T21:27:04.369Z,100.32
2022-12-18T21:29:33.196Z,98.35
2022-12-18T21:32:00.771Z,100.43
2022-12-18T21:34:29.784Z,98.40
2022-12-18T21:36:59.480Z,104.80
2022-12-18T21:39:28.734Z,91.30
2022-12-18T21:42:15.509Z,90.80
2022-12-18T21:44:45.191Z,87.73
2022-12-18T21:47:23.007Z,89.40
2022-12-18T21:49:52.883Z,94.65
2022-12-18T21:52:31.779Z,96.40
2022-12-18T21:55:07.995Z,96.18
2022-12-18T21:57:38.602Z,89.77
2022-12-18T22:00:07.105Z,89.65
2022-12-18T22:02:39.817Z,105.35
2022-12-18T22:05:08.211Z,107.15
2022-12-18T22:07:36.652Z,105.97
2022-12-18T22:10:04.406Z,98.30
2022-12-18T22:12:43.096Z,112.45
2022-12-18T22:15:21.489Z,93.30
2022-12-18T22:17:50.948Z,104.93
2022-12-18T22:20:20.245Z,100.80
2022-12-18T22:22:48.809Z,96.17
2022-12-18T22:25:16.714Z,86.43
2022-12-18T22:28:04.742Z,103.70
2022-12-18T22:30:32.970Z,93.07
2022-12-18T22:33:00.467Z,98.68
2022-12-18T22:35:28.006Z,82.13
2022-12-18T22:37:55.944Z,79.30
2022-12-18T22:40:27.061Z,79.40
2022-12-18T22:42:54.738Z,76.50
2022-12-18T22:45:22.519Z,80.70
2022-12-18T22:47:50.308Z,86.83
2022-12-18T22:50:17.880Z,85.70
2022-12-18T22:52:45.853Z,69.47
2022-12-18T22:55:13.381Z,71.90
2022-12-18T22:57:42.094Z,70.97
2022-12-18T23:00:23.780Z,74.47
2022-12-18T23:03:00.173Z,68.90
2022-12-18T23:05:30.319Z,72.12
2022-12-18T23:07:58.622Z,69.62
2022-12-18T23:10:26.772Z,75.97
2022-12-18T23:12:54.867Z,76.13
2022-12-18T23:15:28.152Z,77.03
2022-12-18T23:17:58.047Z,74.90
2022-12-18T23:20:26.884Z,76.70
2022-12-18T23:22:54.405Z,69.43
2022-12-18T23:25:22.246Z,80.13
2022-12-18T23:27:50.452Z,84.80
2022-12-18T23:30:17.987Z,82.85
2022-12-18T23:32:45.803Z,81.35
2022-12-18T23:35:14.227Z,81.22
2022-12-18T23:38:00.564Z,77.90
2022-12-18T23:40:29.602Z,95.80
2022-12-18T23:42:57.324Z,83.12
2022-12-18T23:45:24.771Z,80.68
2022-12-18T23:47:52.516Z,89.97
2022-12-18T23:50:24.045Z,78.57
2022-12-18T23:52:57.470Z,77.62
2022-12-18T23:55:32.347Z,76.45
2022-12-18T23:58:00.123Z,72.03
